World Yacht's Duchess — WTY9193 — position and weather

sailwx.info

Track history (hours):
 
Tides and Currents Weather Stations Pressure Air Temp Water Temp Dewpoint Dewpoint Depression Visibility Wind Speed Wind Dir Waves Ship Positions

World Yacht's Duchess

Owner: World Yacht LLC Pier 81 West 41 Street New York ,NY 10036, NEW YORK, NY. More information available from US FCC via Universal Licensing System and Coast Guard Vessel Documentation Center.

Last reported at 2018-Jul-21 01:51 UTC. Time now 2018-Jul-22 20:18 UTC.
Position N 40°46' W 074°00'.

Length 42 m; draft 2.4 m.

Type: Passenger vessel. MMSI: 366929750.

Date/timePositionNaut miles runAvg speedWind from/ knotsBaromVisibWave heightAir tempDewpointWater temp
2018-Jul-21 01:51N 40°46' W 074°00'1 1.9
2018-Jul-21 01:30N 40°45' W 074°01'3 5.6
2018-Jul-21 01:00N 40°42' W 074°01'1 1.4
2018-Jul-21 00:31N 40°42' W 074°01'1 1.9
2018-Jul-21 00:00N 40°43' W 074°01'3 6.7
2018-Jul-20 23:30N 40°46' W 074°00'0 0.6
2018-Jul-20 23:00N 40°46' W 074°00'0 0.0
2018-Jul-20 22:30N 40°46' W 074°00'0 0.0
2018-Jul-20 22:00N 40°46' W 074°00'0 0.0
2018-Jul-20 21:30N 40°46' W 074°00'0 0.0
2018-Jul-20 21:00N 40°46' W 074°00'0 0.0
2018-Jul-20 20:30N 40°46' W 074°00'0 0.0
2018-Jul-20 20:00N 40°46' W 074°00'0 0.0
2018-Jul-20 01:01N 40°46' W 074°00'0 0.0
2018-Jul-20 00:58N 40°46' W 074°00'1 3.0
2018-Jul-20 00:30N 40°44' W 074°01'3 5.9
2018-Jul-20 00:00N 40°42' W 074°02'2 4.2
2018-Jul-19 23:30N 40°42' W 073°59'1 2.0
2018-Jul-19 23:00N 40°42' W 074°01'2 3.9
2018-Jul-19 22:30N 40°44' W 074°01'2 4.9
2018-Jul-19 22:00N 40°46' W 074°00'0 0.8
2018-Jul-19 21:27N 40°46' W 073°60'1 1.3
2018-Jul-19 20:56N 40°46' W 074°00'0 0.0
2018-Jul-19 20:29N 40°46' W 074°00'0 0.0
2018-Jul-19 19:56N 40°46' W 074°00'0 0.0
2018-Jul-19 19:29N 40°46' W 074°00'0 0.0
2018-Jul-19 18:59N 40°46' W 074°00'0 0.0
2018-Jul-19 18:23N 40°46' W 074°00'0 0.0
2018-Jul-19 17:59N 40°46' W 074°00'0 0.0
2018-Jul-19 03:04N 40°46' W 074°00'0 1.0
2018-Jul-19 02:55N 40°46' W 074°00'2 5.8
2018-Jul-19 02:30N 40°43' W 074°01'2 3.5
2018-Jul-19 02:00N 40°42' W 073°59'2 2.5
2018-Jul-19 01:08N 40°45' W 073°58'1 4.6
2018-Jul-19 01:00N 40°45' W 073°58'2 3.9
2018-Jul-19 00:30N 40°43' W 073°58'2 3.8
2018-Jul-19 00:00N 40°42' W 074°00'1 2.7
2018-Jul-18 23:30N 40°41' W 074°02'3 5.2
2018-Jul-18 23:00N 40°44' W 074°01'2 3.8
2018-Jul-18 22:30N 40°42' W 074°00'3 2.7
2018-Jul-18 21:28N 40°45' W 073°58'2 4.4
2018-Jul-18 21:00N 40°43' W 073°59'2 4.1
2018-Jul-18 20:30N 40°42' W 074°01'4 7.0
2018-Jul-18 20:00N 40°46' W 074°00'0 0.6
2018-Jul-18 19:30N 40°46' W 074°00'1 0.1
2018-Jul-18 01:43N 40°45' W 074°01'1 6.0
2018-Jul-18 01:30N 40°44' W 074°01'3 5.3
2018-Jul-18 01:00N 40°41' W 074°02'2 4.8
2018-Jul-18 00:30N 40°42' W 073°60'1 1.1
2018-Jul-18 00:00N 40°42' W 074°00'2 4.7
2018-Jul-17 23:30N 40°44' W 074°01'2 3.4
2018-Jul-17 23:00N 40°46' W 074°00'0 0.1
2018-Jul-17 22:24N 40°46' W 074°00'0 0.0
2018-Jul-17 21:42N 40°46' W 074°00'0 0.0
2018-Jul-17 21:30N 40°46' W 074°00'0 0.0
2018-Jul-17 20:00N 40°46' W 074°00'0 0.0
2018-Jul-17 01:36N 40°46' W 074°00'0 0.0
2018-Jul-17 01:30N 40°46' W 074°00'2 4.1
2018-Jul-17 01:00N 40°44' W 074°01'2 5.0
2018-Jul-17 00:30N 40°42' W 074°02'3 3.1
2018-Jul-16 23:30N 40°43' W 073°58'2 3.4
2018-Jul-16 23:00N 40°42' W 074°00'4 6.9
2018-Jul-16 22:30N 40°45' W 074°01'0 0.6
2018-Jul-16 21:47N 40°46' W 074°00'0 0.0
2018-Jul-16 21:29N 40°46' W 074°00'0 0.0
2018-Jul-16 20:53N 40°46' W 074°00'0 0.0
2018-Jul-15 02:26N 40°46' W 074°00'0 0.0
2018-Jul-15 02:00N 40°46' W 074°00'0 0.6
2018-Jul-15 01:29N 40°46' W 074°01'4 7.5
2018-Jul-15 01:00N 40°42' W 074°02'1 1.1
2018-Jul-15 00:30N 40°42' W 074°01'2 3.4
2018-Jul-15 00:00N 40°43' W 073°59'2 3.7
2018-Jul-14 23:30N 40°42' W 074°01'3 5.3
2018-Jul-14 23:00N 40°45' W 074°01'1 1.7
2018-Jul-14 22:28N 40°46' W 074°00'0 0.0
2018-Jul-14 21:58N 40°46' W 074°00'0 0.0
2018-Jul-14 21:28N 40°46' W 074°00'0 0.0
2018-Jul-14 20:58N 40°46' W 074°00'0 0.0
2018-Jul-14 20:28N 40°46' W 074°00'0 0.0
2018-Jul-14 19:58N 40°46' W 074°00'0 0.0
2018-Jul-14 02:05N 40°46' W 074°00'0 0.0
2018-Jul-14 02:01N 40°46' W 074°00'0 0.5
2018-Jul-14 01:31N 40°46' W 074°01'4 8.2
2018-Jul-14 01:00N 40°42' W 074°02'1 2.3
2018-Jul-14 00:31N 40°42' W 074°01'0 0.2
2018-Jul-14 00:00N 40°42' W 074°00'2 3.9
2018-Jul-13 23:31N 40°44' W 074°01'2 4.4
2018-Jul-13 23:00N 40°46' W 074°00'0 0.2
2018-Jul-13 22:30N 40°46' W 074°00'0 0.0
2018-Jul-13 21:57N 40°46' W 074°00'0 0.0
2018-Jul-13 21:29N 40°46' W 074°00'0 0.0
2018-Jul-13 00:46N 40°46' W 074°00'2 7.6
2018-Jul-13 00:30N 40°44' W 074°01'3 5.1
2018-Jul-13 00:00N 40°41' W 074°02'2 4.5
2018-Jul-12 23:30N 40°42' W 073°60'2 3.1
2018-Jul-12 23:01N 40°43' W 074°01'2 4.9
2018-Jul-12 22:30N 40°46' W 074°00'0 0.3
2018-Jul-12 21:59N 40°46' W 074°00'0 0.0
2018-Jul-12 21:26N 40°46' W 074°00'0 0.0
2018-Jul-12 01:09N 40°46' W 074°00'0 1.8
2018-Jul-12 01:00N 40°46' W 074°00'3 6.9
2018-Jul-12 00:30N 40°43' W 074°01'1 1.5
2018-Jul-12 00:00N 40°42' W 074°01'2 3.1
2018-Jul-11 23:30N 40°43' W 074°01'2 3.9
2018-Jul-11 23:00N 40°45' W 074°01'1 2.1
2018-Jul-11 22:28N 40°46' W 074°00'0 0.8
2018-Jul-11 21:56N 40°46' W 074°00'0 0.0
2018-Jul-11 21:26N 40°46' W 074°00'0 0.0
2018-Jul-11 20:56N 40°46' W 074°00'0 0.0
2018-Jul-11 20:26N 40°46' W 074°00'0 0.0
2018-Jul-11 19:59N 40°46' W 074°00'  
Track history (hours):
 
Tides and Currents Weather Stations Pressure Air Temp Water Temp Dewpoint Dewpoint Depression Visibility Wind Speed Wind Dir Waves Ship Positions

World Yacht's Duchess

Owner: World Yacht LLC Pier 81 West 41 Street New York ,NY 10036, NEW YORK, NY. More information available from US FCC via Universal Licensing System and Coast Guard Vessel Documentation Center.

Last reported at 2018-Jul-21 01:51 UTC. Time now 2018-Jul-22 20:18 UTC.
Position N 40°46' W 074°00'.

Length 42 m; draft 2.4 m.

Type: Passenger vessel. MMSI: 366929750.

Date/timePositionNaut miles runAvg speedWind from/ knotsBaromVisibWave heightAir tempDewpointWater temp
2018-Jul-21 01:51N 40°46' W 074°00'1 1.9
2018-Jul-21 01:30N 40°45' W 074°01'3 5.6
2018-Jul-21 01:00N 40°42' W 074°01'1 1.4
2018-Jul-21 00:31N 40°42' W 074°01'1 1.9
2018-Jul-21 00:00N 40°43' W 074°01'3 6.7
2018-Jul-20 23:30N 40°46' W 074°00'0 0.6
2018-Jul-20 23:00N 40°46' W 074°00'0 0.0
2018-Jul-20 22:30N 40°46' W 074°00'0 0.0
2018-Jul-20 22:00N 40°46' W 074°00'0 0.0
2018-Jul-20 21:30N 40°46' W 074°00'0 0.0
2018-Jul-20 21:00N 40°46' W 074°00'0 0.0
2018-Jul-20 20:30N 40°46' W 074°00'0 0.0
2018-Jul-20 20:00N 40°46' W 074°00'0 0.0
2018-Jul-20 01:01N 40°46' W 074°00'0 0.0
2018-Jul-20 00:58N 40°46' W 074°00'1 3.0
2018-Jul-20 00:30N 40°44' W 074°01'3 5.9
2018-Jul-20 00:00N 40°42' W 074°02'2 4.2
2018-Jul-19 23:30N 40°42' W 073°59'1 2.0
2018-Jul-19 23:00N 40°42' W 074°01'2 3.9
2018-Jul-19 22:30N 40°44' W 074°01'2 4.9
2018-Jul-19 22:00N 40°46' W 074°00'0 0.8
2018-Jul-19 21:27N 40°46' W 073°60'1 1.3
2018-Jul-19 20:56N 40°46' W 074°00'0 0.0
2018-Jul-19 20:29N 40°46' W 074°00'0 0.0
2018-Jul-19 19:56N 40°46' W 074°00'0 0.0
2018-Jul-19 19:29N 40°46' W 074°00'0 0.0
2018-Jul-19 18:59N 40°46' W 074°00'0 0.0
2018-Jul-19 18:23N 40°46' W 074°00'0 0.0
2018-Jul-19 17:59N 40°46' W 074°00'0 0.0
2018-Jul-19 03:04N 40°46' W 074°00'0 1.0
2018-Jul-19 02:55N 40°46' W 074°00'2 5.8
2018-Jul-19 02:30N 40°43' W 074°01'2 3.5
2018-Jul-19 02:00N 40°42' W 073°59'2 2.5
2018-Jul-19 01:08N 40°45' W 073°58'1 4.6
2018-Jul-19 01:00N 40°45' W 073°58'2 3.9
2018-Jul-19 00:30N 40°43' W 073°58'2 3.8
2018-Jul-19 00:00N 40°42' W 074°00'1 2.7
2018-Jul-18 23:30N 40°41' W 074°02'3 5.2
2018-Jul-18 23:00N 40°44' W 074°01'2 3.8
2018-Jul-18 22:30N 40°42' W 074°00'3 2.7
2018-Jul-18 21:28N 40°45' W 073°58'2 4.4
2018-Jul-18 21:00N 40°43' W 073°59'2 4.1
2018-Jul-18 20:30N 40°42' W 074°01'4 7.0
2018-Jul-18 20:00N 40°46' W 074°00'0 0.6
2018-Jul-18 19:30N 40°46' W 074°00'1 0.1
2018-Jul-18 01:43N 40°45' W 074°01'1 6.0
2018-Jul-18 01:30N 40°44' W 074°01'3 5.3
2018-Jul-18 01:00N 40°41' W 074°02'2 4.8
2018-Jul-18 00:30N 40°42' W 073°60'1 1.1
2018-Jul-18 00:00N 40°42' W 074°00'2 4.7
2018-Jul-17 23:30N 40°44' W 074°01'2 3.4
2018-Jul-17 23:00N 40°46' W 074°00'0 0.1
2018-Jul-17 22:24N 40°46' W 074°00'0 0.0
2018-Jul-17 21:42N 40°46' W 074°00'0 0.0
2018-Jul-17 21:30N 40°46' W 074°00'0 0.0
2018-Jul-17 20:00N 40°46' W 074°00'0 0.0
2018-Jul-17 01:36N 40°46' W 074°00'0 0.0
2018-Jul-17 01:30N 40°46' W 074°00'2 4.1
2018-Jul-17 01:00N 40°44' W 074°01'2 5.0
2018-Jul-17 00:30N 40°42' W 074°02'3 3.1
2018-Jul-16 23:30N 40°43' W 073°58'2 3.4
2018-Jul-16 23:00N 40°42' W 074°00'4 6.9
2018-Jul-16 22:30N 40°45' W 074°01'0 0.6
2018-Jul-16 21:47N 40°46' W 074°00'0 0.0
2018-Jul-16 21:29N 40°46' W 074°00'0 0.0
2018-Jul-16 20:53N 40°46' W 074°00'0 0.0
2018-Jul-15 02:26N 40°46' W 074°00'0 0.0
2018-Jul-15 02:00N 40°46' W 074°00'0 0.6
2018-Jul-15 01:29N 40°46' W 074°01'4 7.5
2018-Jul-15 01:00N 40°42' W 074°02'1 1.1
2018-Jul-15 00:30N 40°42' W 074°01'2 3.4
2018-Jul-15 00:00N 40°43' W 073°59'2 3.7
2018-Jul-14 23:30N 40°42' W 074°01'3 5.3
2018-Jul-14 23:00N 40°45' W 074°01'1 1.7
2018-Jul-14 22:28N 40°46' W 074°00'0 0.0
2018-Jul-14 21:58N 40°46' W 074°00'0 0.0
2018-Jul-14 21:28N 40°46' W 074°00'0 0.0
2018-Jul-14 20:58N 40°46' W 074°00'0 0.0
2018-Jul-14 20:28N 40°46' W 074°00'0 0.0
2018-Jul-14 19:58N 40°46' W 074°00'0 0.0
2018-Jul-14 02:05N 40°46' W 074°00'0 0.0
2018-Jul-14 02:01N 40°46' W 074°00'0 0.5
2018-Jul-14 01:31N 40°46' W 074°01'4 8.2
2018-Jul-14 01:00N 40°42' W 074°02'1 2.3
2018-Jul-14 00:31N 40°42' W 074°01'0 0.2
2018-Jul-14 00:00N 40°42' W 074°00'2 3.9
2018-Jul-13 23:31N 40°44' W 074°01'2 4.4
2018-Jul-13 23:00N 40°46' W 074°00'0 0.2
2018-Jul-13 22:30N 40°46' W 074°00'0 0.0
2018-Jul-13 21:57N 40°46' W 074°00'0 0.0
2018-Jul-13 21:29N 40°46' W 074°00'0 0.0
2018-Jul-13 00:46N 40°46' W 074°00'2 7.6
2018-Jul-13 00:30N 40°44' W 074°01'3 5.1
2018-Jul-13 00:00N 40°41' W 074°02'2 4.5
2018-Jul-12 23:30N 40°42' W 073°60'2 3.1
2018-Jul-12 23:01N 40°43' W 074°01'2 4.9
2018-Jul-12 22:30N 40°46' W 074°00'0 0.3
2018-Jul-12 21:59N 40°46' W 074°00'0 0.0
2018-Jul-12 21:26N 40°46' W 074°00'0 0.0
2018-Jul-12 01:09N 40°46' W 074°00'0 1.8
2018-Jul-12 01:00N 40°46' W 074°00'3 6.9
2018-Jul-12 00:30N 40°43' W 074°01'1 1.5
2018-Jul-12 00:00N 40°42' W 074°01'2 3.1
2018-Jul-11 23:30N 40°43' W 074°01'2 3.9
2018-Jul-11 23:00N 40°45' W 074°01'1 2.1
2018-Jul-11 22:28N 40°46' W 074°00'0 0.8
2018-Jul-11 21:56N 40°46' W 074°00'0 0.0
2018-Jul-11 21:26N 40°46' W 074°00'0 0.0
2018-Jul-11 20:56N 40°46' W 074°00'0 0.0
2018-Jul-11 20:26N 40°46' W 074°00'0 0.0
2018-Jul-11 19:59N 40°46' W 074°00'  

Dump ship's entire track history